sensor_id;sensor_type;location;lat;lon;timestamp;temperature;humidity
36458;DHT22;22480;50.546;12.292;2022-12-18T00:01:35;-12.80;99.90
36458;DHT22;22480;50.546;12.292;2022-12-18T00:04:04;-12.90;99.90
36458;DHT22;22480;50.546;12.292;2022-12-18T00:06:30;-12.90;99.90
36458;DHT22;22480;50.546;12.292;2022-12-18T00:08:57;-12.90;99.90
36458;DHT22;22480;50.546;12.292;2022-12-18T00:11:25;-12.90;99.90
36458;DHT22;22480;50.546;12.292;2022-12-18T00:13:53;-12.80;99.90
36458;DHT22;22480;50.546;12.292;2022-12-18T00:16:21;-12.80;99.90
36458;DHT22;22480;50.546;12.292;2022-12-18T00:18:48;-12.70;99.90
36458;DHT22;22480;50.546;12.292;2022-12-18T00:21:15;-12.50;99.90
36458;DHT22;22480;50.546;12.292;2022-12-18T00:23:42;-12.40;99.90
36458;DHT22;22480;50.546;12.292;2022-12-18T00:26:38;-12.40;99.90
36458;DHT22;22480;50.546;12.292;2022-12-18T00:29:10;-12.50;99.90
36458;DHT22;22480;50.546;12.292;2022-12-18T00:31:37;-12.60;99.90
36458;DHT22;22480;50.546;12.292;2022-12-18T00:34:03;-12.70;99.90
36458;DHT22;22480;50.546;12.292;2022-12-18T00:36:32;-12.80;99.90
36458;DHT22;22480;50.546;12.292;2022-12-18T00:39:00;-12.90;99.90
36458;DHT22;22480;50.546;12.292;2022-12-18T00:41:27;-13.00;99.90
36458;DHT22;22480;50.546;12.292;2022-12-18T00:44:14;-13.10;99.90
36458;DHT22;22480;50.546;12.292;2022-12-18T00:46:42;-13.20;99.90
36458;DHT22;22480;50.546;12.292;2022-12-18T00:49:08;-13.30;99.90
36458;DHT22;22480;50.546;12.292;2022-12-18T00:51:34;-13.40;99.90
36458;DHT22;22480;50.546;12.292;2022-12-18T00:54:00;-13.40;99.90
36458;DHT22;22480;50.546;12.292;2022-12-18T00:56:26;-13.30;99.90
36458;DHT22;22480;50.546;12.292;2022-12-18T00:58:52;-13.20;99.90
36458;DHT22;22480;50.546;12.292;2022-12-18T01:01:18;-13.10;99.90
36458;DHT22;22480;50.546;12.292;2022-12-18T01:03:44;-13.10;99.90
36458;DHT22;22480;50.546;12.292;2022-12-18T01:06:14;-13.00;99.90
36458;DHT22;22480;50.546;12.292;2022-12-18T01:08:40;-13.00;99.90
36458;DHT22;22480;50.546;12.292;2022-12-18T01:11:11;-13.00;99.90
36458;DHT22;22480;50.546;12.292;2022-12-18T01:13:38;-13.10;99.90
36458;DHT22;22480;50.546;12.292;2022-12-18T01:16:04;-13.00;99.90
36458;DHT22;22480;50.546;12.292;2022-12-18T01:18:30;-13.10;99.90
36458;DHT22;22480;50.546;12.292;2022-12-18T01:20:57;-13.20;99.90
36458;DHT22;22480;50.546;12.292;2022-12-18T01:23:23;-13.20;99.90
36458;DHT22;22480;50.546;12.292;2022-12-18T01:25:49;-13.20;99.90
36458;DHT22;22480;50.546;12.292;2022-12-18T01:28:15;-13.10;99.90
36458;DHT22;22480;50.546;12.292;2022-12-18T01:30:41;-12.90;99.90
36458;DHT22;22480;50.546;12.292;2022-12-18T01:33:06;-13.00;99.90
36458;DHT22;22480;50.546;12.292;2022-12-18T01:35:43;-13.00;99.90
36458;DHT22;22480;50.546;12.292;2022-12-18T01:38:09;-13.00;99.90
36458;DHT22;22480;50.546;12.292;2022-12-18T01:40:35;-12.90;99.90
36458;DHT22;22480;50.546;12.292;2022-12-18T01:43:01;-13.00;99.90
36458;DHT22;22480;50.546;12.292;2022-12-18T01:45:31;-13.10;99.90
36458;DHT22;22480;50.546;12.292;2022-12-18T01:48:06;-13.20;99.90
36458;DHT22;22480;50.546;12.292;2022-12-18T01:50:40;-13.20;99.90
36458;DHT22;22480;50.546;12.292;2022-12-18T01:53:10;-13.20;99.90
36458;DHT22;22480;50.546;12.292;2022-12-18T01:55:40;-13.20;99.90
36458;DHT22;22480;50.546;12.292;2022-12-18T01:58:09;-13.30;99.90
36458;DHT22;22480;50.546;12.292;2022-12-18T02:00:35;-13.30;99.90
36458;DHT22;22480;50.546;12.292;2022-12-18T02:03:01;-13.40;99.90
36458;DHT22;22480;50.546;12.292;2022-12-18T02:08:26;-13.50;99.90
36458;DHT22;22480;50.546;12.292;2022-12-18T02:18:50;-13.60;99.90
36458;DHT22;22480;50.546;12.292;2022-12-18T02:21:44;-13.70;99.90
36458;DHT22;22480;50.546;12.292;2022-12-18T02:24:34;-13.70;99.90
36458;DHT22;22480;50.546;12.292;2022-12-18T02:27:06;-13.70;99.90
36458;DHT22;22480;50.546;12.292;2022-12-18T02:29:53;-13.60;99.90
36458;DHT22;22480;50.546;12.292;2022-12-18T02:32:27;-13.50;99.90
36458;DHT22;22480;50.546;12.292;2022-12-18T02:34:56;-13.50;99.90
36458;DHT22;22480;50.546;12.292;2022-12-18T02:37:26;-13.50;99.90
36458;DHT22;22480;50.546;12.292;2022-12-18T02:39:53;-13.50;99.90
36458;DHT22;22480;50.546;12.292;2022-12-18T02:42:20;-13.50;99.90
36458;DHT22;22480;50.546;12.292;2022-12-18T02:44:50;-13.50;99.90
36458;DHT22;22480;50.546;12.292;2022-12-18T02:47:22;-13.40;99.90
36458;DHT22;22480;50.546;12.292;2022-12-18T03:01:25;-13.50;99.90
36458;DHT22;22480;50.546;12.292;2022-12-18T03:03:55;-13.60;99.90
36458;DHT22;22480;50.546;12.292;2022-12-18T03:06:24;-13.60;99.90
36458;DHT22;22480;50.546;12.292;2022-12-18T03:08:56;-13.40;99.90
36458;DHT22;22480;50.546;12.292;2022-12-18T03:11:26;-13.30;99.90
36458;DHT22;22480;50.546;12.292;2022-12-18T03:14:15;-13.40;99.90
36458;DHT22;22480;50.546;12.292;2022-12-18T03:16:44;-13.50;99.90
36458;DHT22;22480;50.546;12.292;2022-12-18T03:19:15;-13.60;99.90
36458;DHT22;22480;50.546;12.292;2022-12-18T03:21:53;-13.60;99.90
36458;DHT22;22480;50.546;12.292;2022-12-18T03:24:21;-13.70;99.90
36458;DHT22;22480;50.546;12.292;2022-12-18T03:26:53;-13.70;99.90
36458;DHT22;22480;50.546;12.292;2022-12-18T03:32:03;-13.90;99.90
36458;DHT22;22480;50.546;12.292;2022-12-18T03:34:34;-13.90;99.90
36458;DHT22;22480;50.546;12.292;2022-12-18T03:37:05;-14.00;99.90
36458;DHT22;22480;50.546;12.292;2022-12-18T03:39:32;-13.90;99.90
36458;DHT22;22480;50.546;12.292;2022-12-18T03:42:07;-13.90;99.90
36458;DHT22;22480;50.546;12.292;2022-12-18T03:47:30;-14.00;99.90
36458;DHT22;22480;50.546;12.292;2022-12-18T03:50:13;-13.90;99.90
36458;DHT22;22480;50.546;12.292;2022-12-18T03:55:48;-14.10;99.90
36458;DHT22;22480;50.546;12.292;2022-12-18T03:58:18;-14.20;99.90
36458;DHT22;22480;50.546;12.292;2022-12-18T04:00:56;-14.10;99.90
36458;DHT22;22480;50.546;12.292;2022-12-18T04:03:26;-14.10;99.90
36458;DHT22;22480;50.546;12.292;2022-12-18T04:05:56;-13.90;99.90
36458;DHT22;22480;50.546;12.292;2022-12-18T04:08:23;-13.80;99.90
36458;DHT22;22480;50.546;12.292;2022-12-18T04:11:01;-13.80;99.90
36458;DHT22;22480;50.546;12.292;2022-12-18T04:13:30;-13.90;99.90
36458;DHT22;22480;50.546;12.292;2022-12-18T04:15:59;-13.90;99.90
36458;DHT22;22480;50.546;12.292;2022-12-18T04:18:26;-13.90;99.90
36458;DHT22;22480;50.546;12.292;2022-12-18T04:20:53;-14.00;99.90
36458;DHT22;22480;50.546;12.292;2022-12-18T04:23:19;-14.10;99.90
36458;DHT22;22480;50.546;12.292;2022-12-18T04:25:47;-13.90;99.90
36458;DHT22;22480;50.546;12.292;2022-12-18T04:28:18;-13.80;99.90
36458;DHT22;22480;50.546;12.292;2022-12-18T04:30:44;-13.70;99.90
36458;DHT22;22480;50.546;12.292;2022-12-18T04:33:14;-13.60;99.90
36458;DHT22;22480;50.546;12.292;2022-12-18T04:35:40;-13.80;99.90
36458;DHT22;22480;50.546;12.292;2022-12-18T04:38:07;-13.90;99.90
36458;DHT22;22480;50.546;12.292;2022-12-18T04:40:38;-14.00;99.90
36458;DHT22;22480;50.546;12.292;2022-12-18T04:43:10;-14.00;99.90
36458;DHT22;22480;50.546;12.292;2022-12-18T04:45:36;-14.10;99.90
36458;DHT22;22480;50.546;12.292;2022-12-18T04:48:03;-14.20;99.90
36458;DHT22;22480;50.546;12.292;2022-12-18T04:50:29;-14.20;99.90
36458;DHT22;22480;50.546;12.292;2022-12-18T04:52:56;-14.30;99.90
36458;DHT22;22480;50.546;12.292;2022-12-18T04:55:22;-14.30;99.90
36458;DHT22;22480;50.546;12.292;2022-12-18T04:57:48;-14.30;99.90
36458;DHT22;22480;50.546;12.292;2022-12-18T05:00:14;-14.30;99.90
36458;DHT22;22480;50.546;12.292;2022-12-18T05:02:40;-14.10;99.90
36458;DHT22;22480;50.546;12.292;2022-12-18T05:05:06;-13.90;99.90
36458;DHT22;22480;50.546;12.292;2022-12-18T05:07:32;-13.90;99.90
36458;DHT22;22480;50.546;12.292;2022-12-18T05:09:58;-14.00;99.90
36458;DHT22;22480;50.546;12.292;2022-12-18T05:12:23;-14.10;99.90
36458;DHT22;22480;50.546;12.292;2022-12-18T05:14:49;-14.00;99.90
36458;DHT22;22480;50.546;12.292;2022-12-18T05:17:15;-14.10;99.90
36458;DHT22;22480;50.546;12.292;2022-12-18T05:19:41;-14.00;99.90
36458;DHT22;22480;50.546;12.292;2022-12-18T05:22:06;-14.20;99.90
36458;DHT22;22480;50.546;12.292;2022-12-18T05:24:32;-14.30;99.90
36458;DHT22;22480;50.546;12.292;2022-12-18T05:26:58;-14.50;99.90
36458;DHT22;22480;50.546;12.292;2022-12-18T05:29:24;-14.60;99.90
36458;DHT22;22480;50.546;12.292;2022-12-18T05:31:49;-14.70;99.90
36458;DHT22;22480;50.546;12.292;2022-12-18T05:34:15;-14.80;99.90
36458;DHT22;22480;50.546;12.292;2022-12-18T05:36:41;-14.80;99.90
36458;DHT22;22480;50.546;12.292;2022-12-18T05:39:07;-14.70;99.90
36458;DHT22;22480;50.546;12.292;2022-12-18T05:41:33;-14.60;99.90
36458;DHT22;22480;50.546;12.292;2022-12-18T05:43:59;-14.70;99.90
36458;DHT22;22480;50.546;12.292;2022-12-18T05:46:25;-14.70;99.90
36458;DHT22;22480;50.546;12.292;2022-12-18T05:48:51;-14.70;99.90
36458;DHT22;22480;50.546;12.292;2022-12-18T05:51:19;-14.80;99.90
36458;DHT22;22480;50.546;12.292;2022-12-18T05:53:45;-14.80;99.90
36458;DHT22;22480;50.546;12.292;2022-12-18T05:56:14;-14.80;99.90
36458;DHT22;22480;50.546;12.292;2022-12-18T05:58:40;-14.70;99.90
36458;DHT22;22480;50.546;12.292;2022-12-18T06:01:12;-14.50;99.90
36458;DHT22;22480;50.546;12.292;2022-12-18T06:03:39;-14.30;99.90
36458;DHT22;22480;50.546;12.292;2022-12-18T06:06:22;-14.00;99.90
36458;DHT22;22480;50.546;12.292;2022-12-18T06:08:49;-13.90;99.90
36458;DHT22;22480;50.546;12.292;2022-12-18T06:11:20;-13.90;99.90
36458;DHT22;22480;50.546;12.292;2022-12-18T06:13:49;-13.90;99.90
36458;DHT22;22480;50.546;12.292;2022-12-18T06:16:14;-13.90;99.90
36458;DHT22;22480;50.546;12.292;2022-12-18T06:18:40;-13.80;99.90
36458;DHT22;22480;50.546;12.292;2022-12-18T06:21:06;-13.50;99.90
36458;DHT22;22480;50.546;12.292;2022-12-18T06:23:32;-13.20;99.90
36458;DHT22;22480;50.546;12.292;2022-12-18T06:25:57;-13.30;99.90
36458;DHT22;22480;50.546;12.292;2022-12-18T06:28:23;-13.30;99.90
36458;DHT22;22480;50.546;12.292;2022-12-18T06:30:49;-13.20;99.90
36458;DHT22;22480;50.546;12.292;2022-12-18T06:33:16;-12.90;99.90
36458;DHT22;22480;50.546;12.292;2022-12-18T06:35:42;-12.70;99.90
36458;DHT22;22480;50.546;12.292;2022-12-18T06:38:08;-12.50;99.90
36458;DHT22;22480;50.546;12.292;2022-12-18T06:40:33;-12.50;99.90
36458;DHT22;22480;50.546;12.292;2022-12-18T06:42:59;-12.50;99.90
36458;DHT22;22480;50.546;12.292;2022-12-18T06:45:25;-12.40;99.90
36458;DHT22;22480;50.546;12.292;2022-12-18T06:47:51;-12.40;99.90
36458;DHT22;22480;50.546;12.292;2022-12-18T06:50:17;-12.40;99.90
36458;DHT22;22480;50.546;12.292;2022-12-18T06:52:42;-12.40;99.90
36458;DHT22;22480;50.546;12.292;2022-12-18T06:55:10;-12.60;99.90
36458;DHT22;22480;50.546;12.292;2022-12-18T06:57:36;-12.70;99.90
36458;DHT22;22480;50.546;12.292;2022-12-18T07:00:05;-12.50;99.90
36458;DHT22;22480;50.546;12.292;2022-12-18T07:02:31;-12.40;99.90
36458;DHT22;22480;50.546;12.292;2022-12-18T07:04:57;-12.40;99.90
36458;DHT22;22480;50.546;12.292;2022-12-18T07:07:23;-12.50;99.90
36458;DHT22;22480;50.546;12.292;2022-12-18T07:09:51;-12.50;99.90
36458;DHT22;22480;50.546;12.292;2022-12-18T07:12:17;-12.50;99.90
36458;DHT22;22480;50.546;12.292;2022-12-18T07:14:43;-12.60;99.90
36458;DHT22;22480;50.546;12.292;2022-12-18T07:17:09;-12.50;99.90
36458;DHT22;22480;50.546;12.292;2022-12-18T07:19:35;-12.30;99.90
36458;DHT22;22480;50.546;12.292;2022-12-18T07:22:01;-12.30;99.90
36458;DHT22;22480;50.546;12.292;2022-12-18T07:24:27;-12.20;99.90
36458;DHT22;22480;50.546;12.292;2022-12-18T07:26:53;-12.10;99.90
36458;DHT22;22480;50.546;12.292;2022-12-18T07:29:18;-12.00;99.90
36458;DHT22;22480;50.546;12.292;2022-12-18T07:31:44;-12.00;99.90
36458;DHT22;22480;50.546;12.292;2022-12-18T07:34:12;-12.10;99.90
36458;DHT22;22480;50.546;12.292;2022-12-18T07:36:38;-12.10;99.90
36458;DHT22;22480;50.546;12.292;2022-12-18T07:39:03;-12.10;99.90
36458;DHT22;22480;50.546;12.292;2022-12-18T07:41:29;-12.00;99.90
36458;DHT22;22480;50.546;12.292;2022-12-18T07:43:55;-12.00;99.90
36458;DHT22;22480;50.546;12.292;2022-12-18T07:46:21;-11.90;99.90
36458;DHT22;22480;50.546;12.292;2022-12-18T07:48:47;-11.90;99.90
36458;DHT22;22480;50.546;12.292;2022-12-18T07:51:13;-11.90;99.90
36458;DHT22;22480;50.546;12.292;2022-12-18T07:53:39;-11.80;99.90
36458;DHT22;22480;50.546;12.292;2022-12-18T07:56:08;-11.80;99.90
36458;DHT22;22480;50.546;12.292;2022-12-18T07:58:34;-11.90;99.90
36458;DHT22;22480;50.546;12.292;2022-12-18T08:01:05;-11.90;99.90
36458;DHT22;22480;50.546;12.292;2022-12-18T08:03:32;-11.90;99.90
36458;DHT22;22480;50.546;12.292;2022-12-18T08:06:02;-11.90;99.90
36458;DHT22;22480;50.546;12.292;2022-12-18T08:08:29;-11.90;99.90
36458;DHT22;22480;50.546;12.292;2022-12-18T08:10:55;-11.90;99.90
36458;DHT22;22480;50.546;12.292;2022-12-18T08:13:21;-11.90;99.90
36458;DHT22;22480;50.546;12.292;2022-12-18T08:15:56;-11.80;99.90
36458;DHT22;22480;50.546;12.292;2022-12-18T08:18:22;-11.60;99.90
36458;DHT22;22480;50.546;12.292;2022-12-18T08:20:48;-11.50;99.90
36458;DHT22;22480;50.546;12.292;2022-12-18T08:23:13;-11.40;99.90
36458;DHT22;22480;50.546;12.292;2022-12-18T08:25:39;-11.30;99.90
36458;DHT22;22480;50.546;12.292;2022-12-18T08:28:05;-11.20;99.90
36458;DHT22;22480;50.546;12.292;2022-12-18T08:30:31;-11.20;99.90
36458;DHT22;22480;50.546;12.292;2022-12-18T08:32:57;-11.10;99.90
36458;DHT22;22480;50.546;12.292;2022-12-18T08:35:23;-11.00;99.90
36458;DHT22;22480;50.546;12.292;2022-12-18T08:37:49;-10.80;99.90
36458;DHT22;22480;50.546;12.292;2022-12-18T08:40:15;-10.70;99.90
36458;DHT22;22480;50.546;12.292;2022-12-18T08:42:41;-10.50;99.90
36458;DHT22;22480;50.546;12.292;2022-12-18T08:45:25;-10.40;99.90
36458;DHT22;22480;50.546;12.292;2022-12-18T08:47:51;-10.40;99.90
36458;DHT22;22480;50.546;12.292;2022-12-18T08:50:17;-10.30;99.90
36458;DHT22;22480;50.546;12.292;2022-12-18T08:52:43;-10.20;99.90
36458;DHT22;22480;50.546;12.292;2022-12-18T08:55:09;-10.10;99.90
36458;DHT22;22480;50.546;12.292;2022-12-18T08:57:35;-10.00;99.90
36458;DHT22;22480;50.546;12.292;2022-12-18T09:00:02;-9.90;99.90
36458;DHT22;22480;50.546;12.292;2022-12-18T09:02:28;-9.80;99.90
36458;DHT22;22480;50.546;12.292;2022-12-18T09:04:53;-9.70;99.90
36458;DHT22;22480;50.546;12.292;2022-12-18T09:07:19;-9.60;99.90
36458;DHT22;22480;50.546;12.292;2022-12-18T09:09:45;-9.50;99.90
36458;DHT22;22480;50.546;12.292;2022-12-18T09:12:11;-9.40;99.90
36458;DHT22;22480;50.546;12.292;2022-12-18T09:14:36;-9.40;99.90
36458;DHT22;22480;50.546;12.292;2022-12-18T09:17:02;-9.30;99.90
36458;DHT22;22480;50.546;12.292;2022-12-18T09:19:28;-9.20;99.90
36458;DHT22;22480;50.546;12.292;2022-12-18T09:21:54;-9.20;99.90
36458;DHT22;22480;50.546;12.292;2022-12-18T09:24:23;-9.20;99.90
36458;DHT22;22480;50.546;12.292;2022-12-18T09:26:52;-9.10;99.90
36458;DHT22;22480;50.546;12.292;2022-12-18T09:29:18;-9.10;99.90
36458;DHT22;22480;50.546;12.292;2022-12-18T09:31:43;-9.10;99.90
36458;DHT22;22480;50.546;12.292;2022-12-18T09:34:09;-9.00;99.90
36458;DHT22;22480;50.546;12.292;2022-12-18T09:36:35;-9.00;99.90
36458;DHT22;22480;50.546;12.292;2022-12-18T09:39:01;-8.90;99.90
36458;DHT22;22480;50.546;12.292;2022-12-18T09:46:39;-8.60;99.90
36458;DHT22;22480;50.546;12.292;2022-12-18T09:49:10;-8.50;99.90
36458;DHT22;22480;50.546;12.292;2022-12-18T09:51:46;-8.40;99.90
36458;DHT22;22480;50.546;12.292;2022-12-18T09:54:19;-8.20;99.90
36458;DHT22;22480;50.546;12.292;2022-12-18T09:56:45;-8.10;99.90
36458;DHT22;22480;50.546;12.292;2022-12-18T09:59:26;-7.90;99.90
36458;DHT22;22480;50.546;12.292;2022-12-18T10:01:55;-7.80;99.90
36458;DHT22;22480;50.546;12.292;2022-12-18T10:04:21;-7.70;99.90
36458;DHT22;22480;50.546;12.292;2022-12-18T10:11:56;-7.50;99.90
36458;DHT22;22480;50.546;12.292;2022-12-18T10:14:41;-7.30;99.90
36458;DHT22;22480;50.546;12.292;2022-12-18T10:20:02;-7.10;99.90
36458;DHT22;22480;50.546;12.292;2022-12-18T10:25:21;-6.90;99.90
36458;DHT22;22480;50.546;12.292;2022-12-18T10:27:52;-6.90;99.90
36458;DHT22;22480;50.546;12.292;2022-12-18T10:30:20;-6.80;99.90
36458;DHT22;22480;50.546;12.292;2022-12-18T10:32:46;-6.80;99.90
36458;DHT22;22480;50.546;12.292;2022-12-18T10:35:21;-6.70;99.90
36458;DHT22;22480;50.546;12.292;2022-12-18T10:38:05;-6.60;99.90
36458;DHT22;22480;50.546;12.292;2022-12-18T10:40:32;-6.50;99.90
36458;DHT22;22480;50.546;12.292;2022-12-18T10:43:10;-6.50;99.90
36458;DHT22;22480;50.546;12.292;2022-12-18T10:45:37;-6.40;99.90
36458;DHT22;22480;50.546;12.292;2022-12-18T10:48:03;-6.30;99.90
36458;DHT22;22480;50.546;12.292;2022-12-18T10:50:32;-6.10;99.90
36458;DHT22;22480;50.546;12.292;2022-12-18T10:53:00;-6.00;99.90
36458;DHT22;22480;50.546;12.292;2022-12-18T10:55:34;-5.80;99.90
36458;DHT22;22480;50.546;12.292;2022-12-18T10:58:21;-5.60;99.90
36458;DHT22;22480;50.546;12.292;2022-12-18T11:01:17;-5.40;99.90
36458;DHT22;22480;50.546;12.292;2022-12-18T11:03:45;-5.30;99.90
36458;DHT22;22480;50.546;12.292;2022-12-18T11:08:37;-5.20;99.90
36458;DHT22;22480;50.546;12.292;2022-12-18T11:11:06;-5.10;99.90
36458;DHT22;22480;50.546;12.292;2022-12-18T11:13:32;-4.90;99.90
36458;DHT22;22480;50.546;12.292;2022-12-18T11:15:58;-4.20;99.90
36458;DHT22;22480;50.546;12.292;2022-12-18T11:18:34;-3.10;99.90
36458;DHT22;22480;50.546;12.292;2022-12-18T11:21:08;-2.00;99.90
36458;DHT22;22480;50.546;12.292;2022-12-18T11:23:35;-1.10;99.90
36458;DHT22;22480;50.546;12.292;2022-12-18T11:26:04;-0.40;99.90
36458;DHT22;22480;50.546;12.292;2022-12-18T11:36:33;2.10;99.90
36458;DHT22;22480;50.546;12.292;2022-12-18T11:39:09;2.70;99.90
36458;DHT22;22480;50.546;12.292;2022-12-18T11:44:51;3.00;99.90
36458;DHT22;22480;50.546;12.292;2022-12-18T11:49:51;3.70;99.90
36458;DHT22;22480;50.546;12.292;2022-12-18T11:52:25;3.50;99.90
36458;DHT22;22480;50.546;12.292;2022-12-18T11:54:58;4.00;99.90
36458;DHT22;22480;50.546;12.292;2022-12-18T11:57:40;4.40;99.90
36458;DHT22;22480;50.546;12.292;2022-12-18T12:00:21;4.80;99.90
36458;DHT22;22480;50.546;12.292;2022-12-18T12:13:50;6.50;99.90
36458;DHT22;22480;50.546;12.292;2022-12-18T12:16:25;6.80;82.10
36458;DHT22;22480;50.546;12.292;2022-12-18T12:21:42;6.50;90.30
36458;DHT22;22480;50.546;12.292;2022-12-18T12:24:24;6.30;93.60
36458;DHT22;22480;50.546;12.292;2022-12-18T12:27:20;6.70;85.20
36458;DHT22;22480;50.546;12.292;2022-12-18T12:32:59;7.10;75.50
36458;DHT22;22480;50.546;12.292;2022-12-18T12:35:45;6.80;84.30
36458;DHT22;22480;50.546;12.292;2022-12-18T12:38:27;6.10;83.80
36458;DHT22;22480;50.546;12.292;2022-12-18T12:41:04;5.70;80.80
36458;DHT22;22480;50.546;12.292;2022-12-18T12:46:07;5.10;72.00
36458;DHT22;22480;50.546;12.292;2022-12-18T12:48:55;4.80;78.20
36458;DHT22;22480;50.546;12.292;2022-12-18T12:51:36;4.60;76.30
36458;DHT22;22480;50.546;12.292;2022-12-18T12:54:05;4.20;85.70
36458;DHT22;22480;50.546;12.292;2022-12-18T12:59:23;4.60;94.00
36458;DHT22;22480;50.546;12.292;2022-12-18T13:07:25;4.20;90.80
36458;DHT22;22480;50.546;12.292;2022-12-18T13:12:36;3.80;85.70
36458;DHT22;22480;50.546;12.292;2022-12-18T13:18:23;3.50;75.70
36458;DHT22;22480;50.546;12.292;2022-12-18T13:28:21;3.40;79.10
36458;DHT22;22480;50.546;12.292;2022-12-18T13:30:53;2.90;76.20
36458;DHT22;22480;50.546;12.292;2022-12-18T13:36:02;2.00;80.60
36458;DHT22;22480;50.546;12.292;2022-12-18T13:40:58;1.30;91.00
36458;DHT22;22480;50.546;12.292;2022-12-18T13:43:30;1.10;87.00
36458;DHT22;22480;50.546;12.292;2022-12-18T13:51:23;0.50;99.90
36458;DHT22;22480;50.546;12.292;2022-12-18T13:54:00;0.40;99.90
36458;DHT22;22480;50.546;12.292;2022-12-18T13:56:32;0.10;99.90
36458;DHT22;22480;50.546;12.292;2022-12-18T13:59:12;-0.20;98.30
36458;DHT22;22480;50.546;12.292;2022-12-18T14:02:07;-0.30;99.90
36458;DHT22;22480;50.546;12.292;2022-12-18T14:04:35;-0.50;99.90
36458;DHT22;22480;50.546;12.292;2022-12-18T14:07:18;-0.70;99.90
36458;DHT22;22480;50.546;12.292;2022-12-18T14:09:50;-0.90;99.90
36458;DHT22;22480;50.546;12.292;2022-12-18T14:12:29;-0.90;99.90
36458;DHT22;22480;50.546;12.292;2022-12-18T14:17:50;-1.20;99.90
36458;DHT22;22480;50.546;12.292;2022-12-18T14:20:17;-1.30;99.90
36458;DHT22;22480;50.546;12.292;2022-12-18T14:22:47;-1.40;99.90
36458;DHT22;22480;50.546;12.292;2022-12-18T14:27:44;-1.70;99.90
36458;DHT22;22480;50.546;12.292;2022-12-18T14:30:52;-1.90;99.90
36458;DHT22;22480;50.546;12.292;2022-12-18T14:33:20;-2.20;99.90
36458;DHT22;22480;50.546;12.292;2022-12-18T14:36:02;-2.30;99.90
36458;DHT22;22480;50.546;12.292;2022-12-18T14:38:36;-2.50;99.90
36458;DHT22;22480;50.546;12.292;2022-12-18T14:41:06;-2.60;99.90
36458;DHT22;22480;50.546;12.292;2022-12-18T14:43:33;-2.80;99.90
36458;DHT22;22480;50.546;12.292;2022-12-18T14:46:00;-2.90;99.90
36458;DHT22;22480;50.546;12.292;2022-12-18T14:48:41;-3.10;99.90
36458;DHT22;22480;50.546;12.292;2022-12-18T14:51:16;-3.20;99.90
36458;DHT22;22480;50.546;12.292;2022-12-18T14:53:53;-3.30;99.90
36458;DHT22;22480;50.546;12.292;2022-12-18T14:56:32;-3.50;99.90
36458;DHT22;22480;50.546;12.292;2022-12-18T14:59:12;-3.60;99.90
36458;DHT22;22480;50.546;12.292;2022-12-18T15:01:46;-3.70;99.90
36458;DHT22;22480;50.546;12.292;2022-12-18T15:07:21;-3.90;99.90
36458;DHT22;22480;50.546;12.292;2022-12-18T15:20:52;-4.00;99.90
36458;DHT22;22480;50.546;12.292;2022-12-18T15:23:24;-3.90;99.90
36458;DHT22;22480;50.546;12.292;2022-12-18T15:33:43;-3.90;99.90
36458;DHT22;22480;50.546;12.292;2022-12-18T15:36:16;-3.90;99.90
36458;DHT22;22480;50.546;12.292;2022-12-18T15:38:49;-3.90;99.90
36458;DHT22;22480;50.546;12.292;2022-12-18T15:41:17;-4.00;99.90
36458;DHT22;22480;50.546;12.292;2022-12-18T15:43:45;-4.10;99.90
36458;DHT22;22480;50.546;12.292;2022-12-18T15:46:16;-4.20;99.90
36458;DHT22;22480;50.546;12.292;2022-12-18T15:48:44;-4.30;99.90
36458;DHT22;22480;50.546;12.292;2022-12-18T15:51:17;-4.40;99.90
36458;DHT22;22480;50.546;12.292;2022-12-18T15:53:43;-4.50;99.90
36458;DHT22;22480;50.546;12.292;2022-12-18T15:56:11;-4.50;99.90
36458;DHT22;22480;50.546;12.292;2022-12-18T15:58:56;-4.50;99.90
36458;DHT22;22480;50.546;12.292;2022-12-18T16:01:30;-4.50;99.90
36458;DHT22;22480;50.546;12.292;2022-12-18T16:03:59;-4.50;99.90
36458;DHT22;22480;50.546;12.292;2022-12-18T16:06:25;-4.50;99.90
36458;DHT22;22480;50.546;12.292;2022-12-18T16:08:50;-4.60;99.90
36458;DHT22;22480;50.546;12.292;2022-12-18T16:14:17;-4.70;99.90
36458;DHT22;22480;50.546;12.292;2022-12-18T16:16:45;-4.60;99.90
36458;DHT22;22480;50.546;12.292;2022-12-18T16:19:11;-4.40;99.90
36458;DHT22;22480;50.546;12.292;2022-12-18T16:21:37;-4.40;99.90
36458;DHT22;22480;50.546;12.292;2022-12-18T16:24:03;-4.30;99.90
36458;DHT22;22480;50.546;12.292;2022-12-18T16:26:30;-4.40;99.90
36458;DHT22;22480;50.546;12.292;2022-12-18T16:28:55;-4.30;99.90
36458;DHT22;22480;50.546;12.292;2022-12-18T16:31:21;-4.30;99.90
36458;DHT22;22480;50.546;12.292;2022-12-18T16:33:47;-4.30;99.90
36458;DHT22;22480;50.546;12.292;2022-12-18T16:36:12;-4.20;99.90
36458;DHT22;22480;50.546;12.292;2022-12-18T16:38:38;-4.10;99.90
36458;DHT22;22480;50.546;12.292;2022-12-18T16:41:18;-4.00;99.90
36458;DHT22;22480;50.546;12.292;2022-12-18T16:43:57;-4.10;99.90
36458;DHT22;22480;50.546;12.292;2022-12-18T16:46:23;-4.20;99.90
36458;DHT22;22480;50.546;12.292;2022-12-18T16:48:48;-4.20;99.90
36458;DHT22;22480;50.546;12.292;2022-12-18T16:51:14;-4.20;99.90
36458;DHT22;22480;50.546;12.292;2022-12-18T16:53:40;-4.20;99.90
36458;DHT22;22480;50.546;12.292;2022-12-18T16:56:06;-4.30;99.90
36458;DHT22;22480;50.546;12.292;2022-12-18T16:58:32;-4.40;99.90
36458;DHT22;22480;50.546;12.292;2022-12-18T17:00:58;-4.50;99.90
36458;DHT22;22480;50.546;12.292;2022-12-18T17:03:24;-4.50;99.90
36458;DHT22;22480;50.546;12.292;2022-12-18T17:05:50;-4.50;99.90
36458;DHT22;22480;50.546;12.292;2022-12-18T17:08:15;-4.40;99.90
36458;DHT22;22480;50.546;12.292;2022-12-18T17:10:41;-4.30;99.90
36458;DHT22;22480;50.546;12.292;2022-12-18T17:13:07;-4.30;99.90
36458;DHT22;22480;50.546;12.292;2022-12-18T17:15:36;-4.30;99.90
36458;DHT22;22480;50.546;12.292;2022-12-18T17:18:02;-4.20;99.90
36458;DHT22;22480;50.546;12.292;2022-12-18T17:20:29;-4.20;99.90
36458;DHT22;22480;50.546;12.292;2022-12-18T17:22:55;-4.00;99.90
36458;DHT22;22480;50.546;12.292;2022-12-18T17:25:21;-3.90;99.90
36458;DHT22;22480;50.546;12.292;2022-12-18T17:27:47;-3.80;99.90
36458;DHT22;22480;50.546;12.292;2022-12-18T17:30:12;-3.70;99.90
36458;DHT22;22480;50.546;12.292;2022-12-18T17:32:38;-3.30;99.90
36458;DHT22;22480;50.546;12.292;2022-12-18T17:35:04;-3.20;99.90
36458;DHT22;22480;50.546;12.292;2022-12-18T17:37:30;-3.10;99.90
36458;DHT22;22480;50.546;12.292;2022-12-18T17:39:56;-3.00;99.90
36458;DHT22;22480;50.546;12.292;2022-12-18T17:42:21;-3.00;99.90
36458;DHT22;22480;50.546;12.292;2022-12-18T17:44:47;-2.90;99.90
36458;DHT22;22480;50.546;12.292;2022-12-18T17:47:13;-2.90;99.90
36458;DHT22;22480;50.546;12.292;2022-12-18T17:49:39;-2.90;99.90